createdAt,value
2022-11-03T00:01:43.743Z,10.10
2022-11-03T00:07:37.110Z,9.90
2022-11-03T00:13:30.424Z,10.00
2022-11-03T00:19:25.035Z,10.30
2022-11-03T00:25:18.506Z,10.70
2022-11-03T00:31:14.274Z,10.80
2022-11-03T00:37:08.454Z,10.70
2022-11-03T00:43:02.087Z,10.30
2022-11-03T00:48:55.430Z,10.60
2022-11-03T00:54:54.256Z,10.80
2022-11-03T01:00:48.919Z,10.80
2022-11-03T01:06:53.635Z,10.60
2022-11-03T01:12:47.816Z,10.40
2022-11-03T01:18:41.125Z,10.40
2022-11-03T01:24:35.567Z,10.60
2022-11-03T01:30:30.246Z,10.50
2022-11-03T01:36:23.180Z,10.80
2022-11-03T01:42:16.118Z,10.40
2022-11-03T01:48:12.245Z,10.20
2022-11-03T01:54:09.993Z,10.10
2022-11-03T02:00:05.272Z,10.10
2022-11-03T02:06:08.409Z,9.90
2022-11-03T02:12:08.299Z,9.90
2022-11-03T02:18:03.272Z,9.90
2022-11-03T02:24:04.692Z,9.80
2022-11-03T02:29:59.902Z,10.10
2022-11-03T02:35:59.140Z,9.80
2022-11-03T02:41:55.148Z,10.10
2022-11-03T02:47:51.377Z,10.30
2022-11-03T02:53:49.682Z,10.30
2022-11-03T02:59:47.816Z,10.30
2022-11-03T03:05:43.916Z,10.20
2022-11-03T03:11:39.884Z,10.40
2022-11-03T03:17:38.870Z,10.50
2022-11-03T03:23:37.628Z,10.60
2022-11-03T03:29:36.919Z,10.50
2022-11-03T03:35:32.127Z,10.40
2022-11-03T03:41:29.870Z,10.40
2022-11-03T03:47:28.275Z,10.30
2022-11-03T03:53:21.968Z,10.30
2022-11-03T03:59:16.935Z,10.40
2022-11-03T04:05:10.405Z,10.30
2022-11-03T04:11:21.359Z,10.40
2022-11-03T04:17:38.606Z,10.20
2022-11-03T04:23:31.981Z,10.20
2022-11-03T04:29:26.252Z,10.30
2022-11-03T04:35:23.096Z,10.20
2022-11-03T04:41:18.678Z,10.10
2022-11-03T04:47:13.955Z,10.00
2022-11-03T04:53:14.835Z,9.60
2022-11-03T04:59:13.160Z,9.60
2022-11-03T05:05:16.751Z,9.80
2022-11-03T05:11:23.634Z,9.70
2022-11-03T05:17:24.165Z,9.70
2022-11-03T05:23:17.856Z,9.80
2022-11-03T05:29:16.841Z,9.60
2022-11-03T05:35:20.572Z,9.70
2022-11-03T05:41:17.905Z,9.70
2022-11-03T05:47:19.901Z,9.70
2022-11-03T05:53:27.133Z,9.60
2022-11-03T05:59:26.260Z,9.60
2022-11-03T06:05:24.174Z,9.70
2022-11-03T06:11:24.195Z,9.70
2022-11-03T06:17:24.020Z,9.60
2022-11-03T06:23:21.215Z,9.80
2022-11-03T06:29:17.275Z,9.80
2022-11-03T06:35:13.373Z,9.70
2022-11-03T06:41:16.917Z,9.70
2022-11-03T06:47:23.291Z,9.70
2022-11-03T06:53:22.253Z,9.70
2022-11-03T06:59:18.175Z,9.80
2022-11-03T07:05:23.844Z,9.80
2022-11-03T07:11:19.632Z,9.80
2022-11-03T07:17:18.085Z,9.80
2022-11-03T07:23:17.501Z,9.90
2022-11-03T07:29:16.825Z,9.90
2022-11-03T07:35:41.680Z,10.00
2022-11-03T07:41:43.666Z,9.70
2022-11-03T07:47:37.045Z,9.70
2022-11-03T07:53:39.108Z,9.80
2022-11-03T07:59:36.412Z,9.80
2022-11-03T08:05:29.765Z,9.80
2022-11-03T08:11:27.901Z,10.00
2022-11-03T08:17:22.831Z,10.10
2022-11-03T08:23:25.633Z,10.00
2022-11-03T08:29:21.776Z,10.10
2022-11-03T08:35:15.262Z,10.00
2022-11-03T08:41:08.181Z,10.20
2022-11-03T08:47:03.041Z,10.20
2022-11-03T08:52:56.326Z,10.30
2022-11-03T08:58:49.872Z,10.30
2022-11-03T09:04:44.523Z,10.30
2022-11-03T09:10:42.201Z,10.40
2022-11-03T09:16:35.440Z,10.40
2022-11-03T09:22:30.083Z,10.40
2022-11-03T09:28:23.605Z,10.60
2022-11-03T09:34:17.040Z,10.60
2022-11-03T09:40:15.093Z,10.70
2022-11-03T09:46:08.432Z,10.70
2022-11-03T09:52:02.359Z,10.90
2022-11-03T09:58:01.021Z,11.00
2022-11-03T10:03:58.942Z,11.10
2022-11-03T10:09:53.842Z,11.20
2022-11-03T10:15:48.507Z,11.40
2022-11-03T10:21:43.871Z,11.60
2022-11-03T10:27:37.159Z,11.70
2022-11-03T10:33:34.515Z,12.00
2022-11-03T10:39:32.349Z,12.30
2022-11-03T10:45:25.834Z,12.60
2022-11-03T10:51:20.441Z,12.60
2022-11-03T10:57:13.876Z,12.80
2022-11-03T11:03:08.377Z,13.00
2022-11-03T11:09:05.603Z,12.90
2022-11-03T11:15:00.611Z,13.00
2022-11-03T11:20:53.917Z,13.00
2022-11-03T11:26:51.163Z,13.20
2022-11-03T11:33:01.553Z,13.40
2022-11-03T11:38:59.435Z,13.40
2022-11-03T11:44:58.231Z,13.50
2022-11-03T11:50:51.868Z,13.60
2022-11-03T11:56:46.620Z,13.60
2022-11-03T12:02:41.329Z,13.70
2022-11-03T12:08:35.579Z,13.80
2022-11-03T12:14:35.922Z,13.80
2022-11-03T12:20:48.590Z,13.80
2022-11-03T12:26:42.421Z,13.80
2022-11-03T12:32:35.929Z,13.70
2022-11-03T12:38:30.614Z,13.70
2022-11-03T12:44:24.046Z,13.70
2022-11-03T12:50:17.567Z,13.80
2022-11-03T12:56:12.667Z,13.70
2022-11-03T13:02:06.289Z,13.70
2022-11-03T13:07:59.593Z,13.70
2022-11-03T13:13:54.508Z,13.70
2022-11-03T13:19:49.356Z,13.60
2022-11-03T13:25:47.431Z,13.60
2022-11-03T13:31:42.309Z,13.60
2022-11-03T13:37:35.675Z,13.50
2022-11-03T13:43:29.451Z,13.50
2022-11-03T14:01:37.842Z,13.50
2022-11-03T14:07:33.013Z,13.50
2022-11-03T14:13:26.348Z,13.60
2022-11-03T14:19:19.720Z,13.50
2022-11-03T14:25:14.477Z,13.50
2022-11-03T14:31:07.649Z,13.50
2022-11-03T14:37:01.678Z,13.50
2022-11-03T14:42:56.606Z,13.50
2022-11-03T14:48:49.990Z,13.50
2022-11-03T14:54:43.522Z,13.40
2022-11-03T15:00:38.507Z,13.40
2022-11-03T15:06:32.361Z,13.40
2022-11-03T15:12:33.067Z,13.40
2022-11-03T15:18:27.864Z,13.40
2022-11-03T15:30:34.492Z,13.40
2022-11-03T15:36:29.261Z,13.40
2022-11-03T15:42:22.834Z,13.30
2022-11-03T15:48:15.896Z,13.30
2022-11-03T15:54:10.552Z,13.30
2022-11-03T16:00:06.825Z,13.40
2022-11-03T16:06:00.294Z,13.20
2022-11-03T16:11:55.044Z,13.20
2022-11-03T16:17:49.069Z,13.20
2022-11-03T16:23:42.358Z,13.20
2022-11-03T16:29:37.169Z,13.20
2022-11-03T16:35:30.748Z,13.10
2022-11-03T16:41:24.204Z,13.00
2022-11-03T16:47:18.880Z,13.00
2022-11-03T16:53:12.435Z,13.00
2022-11-03T16:59:05.805Z,12.90
2022-11-03T17:05:00.504Z,12.90
2022-11-03T17:10:53.847Z,12.90
2022-11-03T17:16:49.467Z,12.90
2022-11-03T17:22:44.256Z,12.90
2022-11-03T17:28:37.644Z,12.80
2022-11-03T17:34:31.382Z,12.80
2022-11-03T17:40:27.450Z,12.80
2022-11-03T17:46:20.936Z,12.60
2022-11-03T17:52:19.058Z,12.70
2022-11-03T17:58:16.749Z,12.70
2022-11-03T18:10:08.654Z,12.70
2022-11-03T18:16:07.466Z,12.70
2022-11-03T18:22:00.801Z,12.60
2022-11-03T18:27:54.102Z,12.60
2022-11-03T18:33:49.009Z,12.60
2022-11-03T18:39:42.520Z,12.60
2022-11-03T18:45:35.924Z,12.50
2022-11-03T18:51:30.682Z,12.50
2022-11-03T18:57:25.702Z,12.40
2022-11-03T19:03:23.210Z,12.40
2022-11-03T19:09:20.839Z,12.40
2022-11-03T19:15:19.982Z,12.40
2022-11-03T19:21:15.388Z,12.30
2022-11-03T19:27:15.325Z,12.30
2022-11-03T19:33:14.231Z,12.30
2022-11-03T19:39:13.609Z,12.30
2022-11-03T19:45:11.961Z,12.30
2022-11-03T19:51:07.507Z,12.40
2022-11-03T19:57:00.877Z,12.40
2022-11-03T20:02:55.501Z,12.30
2022-11-03T20:08:48.860Z,12.30
2022-11-03T20:14:42.260Z,12.30
2022-11-03T20:20:38.048Z,12.40
2022-11-03T20:26:31.790Z,12.40
2022-11-03T20:32:25.123Z,12.30
2022-11-03T20:38:21.057Z,12.40
2022-11-03T20:44:14.817Z,12.30
2022-11-03T20:50:09.976Z,12.20
2022-11-03T20:56:04.666Z,12.20
2022-11-03T21:01:58.693Z,12.20
2022-11-03T21:07:52.678Z,12.20
2022-11-03T21:13:47.420Z,12.20
2022-11-03T21:19:58.448Z,12.30
2022-11-03T21:25:52.439Z,12.20
2022-11-03T21:31:47.608Z,12.30
2022-11-03T21:37:40.898Z,12.30
2022-11-03T21:43:50.834Z,12.20
2022-11-03T21:49:45.148Z,12.20
2022-11-03T21:55:38.588Z,12.20
2022-11-03T22:01:32.101Z,12.30
2022-11-03T22:07:26.867Z,12.40
2022-11-03T22:13:20.132Z,12.30
2022-11-03T22:19:33.415Z,12.40
2022-11-03T22:25:56.847Z,12.30
2022-11-03T22:31:50.139Z,12.30
2022-11-03T22:37:43.547Z,12.30
2022-11-03T22:43:56.349Z,12.30
2022-11-03T22:49:49.644Z,12.30
2022-11-03T22:55:43.431Z,12.20
2022-11-03T23:01:38.161Z,12.10
2022-11-03T23:07:35.846Z,12.10
2022-11-03T23:13:31.765Z,12.10
2022-11-03T23:19:44.099Z,12.10
2022-11-03T23:25:37.393Z,12.20
2022-11-03T23:31:30.698Z,12.20
2022-11-03T23:37:25.309Z,12.20
2022-11-03T23:43:18.569Z,12.20
2022-11-03T23:49:12.229Z,12.20
2022-11-03T23:55:07.361Z,12.10
